Time;durP1;ratioP1;P1;durP2;ratioP2;P2;SDS_P1;SDS_P2;PMS_P1;PMS_P2;Temp;Humidity;BMP_temperature;BMP_pressure;BME280_temperature;BME280_humidity;BME280_pressure;Samples;Min_cycle;Max_cycle;Signal;HPM_P1;HPM_P2
2022/06/18 00:02:15;;;;;;;4.45;2.20;;;29.60;32.10;;;;;;6197880;28;20438;-70
2022/06/18 00:05:20;;;;;;;19.58;2.50;;;29.60;32.20;;;;;;6183162;28;20080;-70
2022/06/18 00:08:26;;;;;;;6.10;2.58;;;29.50;32.20;;;;;;6197581;28;20022;-70
2022/06/18 00:14:47;;;;;;;5.82;3.03;;;29.50;32.40;;;;;;6178211;28;20042;-70
2022/06/18 00:17:49;;;;;;;6.10;2.70;;;29.40;32.50;;;;;;6203220;28;20455;-71
2022/06/18 00:20:50;;;;;;;7.15;2.90;;;29.40;32.80;;;;;;6175482;28;20022;-70
2022/06/18 00:23:51;;;;;;;5.93;2.72;;;29.40;33.30;;;;;;6181383;28;20084;-70
2022/06/18 00:26:53;;;;;;;7.30;2.90;;;29.40;34.10;;;;;;6200363;28;20062;-70
2022/06/18 00:29:54;;;;;;;4.30;2.65;;;29.40;34.80;;;;;;6181748;28;20030;-70
2022/06/18 00:32:56;;;;;;;14.48;3.20;;;29.30;35.50;;;;;;6171346;28;20026;-70
2022/06/18 00:36:02;;;;;;;8.10;2.83;;;29.30;36.10;;;;;;6181638;28;20447;-70
2022/06/18 00:39:04;;;;;;;12.52;3.00;;;29.20;36.40;;;;;;6206089;28;20695;-69
2022/06/18 00:42:10;;;;;;;9.75;2.90;;;29.10;36.30;;;;;;6196532;28;20022;-69
2022/06/18 00:45:20;;;;;;;9.13;3.03;;;29.10;36.30;;;;;;6189066;28;20113;-70
2022/06/18 00:48:32;;;;;;;4.20;2.75;;;29.00;36.40;;;;;;6199566;28;20455;-70
2022/06/18 00:52:05;;;;;;;9.60;2.83;;;29.00;36.60;;;;;;6186077;28;20038;-71
2022/06/18 00:55:19;;;;;;;3.53;2.88;;;28.90;36.50;;;;;;6179744;28;20046;-71
2022/06/18 00:58:49;;;;;;;5.32;2.75;;;28.90;37.10;;;;;;6199836;28;20049;-71
2022/06/18 01:01:51;;;;;;;5.50;2.85;;;28.80;36.30;;;;;;6189016;28;20025;-70
2022/06/18 01:04:52;;;;;;;4.65;2.90;;;28.90;36.20;;;;;;6199553;28;20026;-70
2022/06/18 01:08:04;;;;;;;8.73;2.60;;;28.80;36.10;;;;;;6195702;28;20047;-71
2022/06/18 01:11:22;;;;;;;4.28;2.42;;;28.80;36.00;;;;;;6184003;28;20022;-70
2022/06/18 01:14:24;;;;;;;;;;;28.70;36.00;;;;;;6188802;28;20077;-70
2022/06/18 01:17:26;;;;;;;4.68;2.80;;;28.80;36.10;;;;;;6176763;28;19905;-70
2022/06/18 01:20:28;;;;;;;5.25;2.88;;;28.70;36.20;;;;;;6178500;28;20038;-70
2022/06/18 01:23:28;;;;;;;4.15;2.97;;;28.70;36.50;;;;;;6184234;28;20053;-70
2022/06/18 01:26:30;;;;;;;4.18;2.50;;;28.60;36.80;;;;;;6182053;28;20033;-71
2022/06/18 01:29:32;;;;;;;4.53;2.63;;;28.60;36.80;;;;;;6181709;28;20027;-70
2022/06/18 01:32:33;;;;;;;6.10;2.90;;;28.50;36.50;;;;;;6186826;28;20037;-70
2022/06/18 01:35:38;;;;;;;3.90;2.35;;;28.50;36.20;;;;;;6180305;28;20035;-70
2022/06/18 01:38:46;;;;;;;4.10;2.47;;;28.50;36.10;;;;;;6190278;28;20029;-71
2022/06/18 01:41:50;;;;;;;4.78;2.33;;;28.40;36.00;;;;;;6183457;28;20018;-70
2022/06/18 01:44:56;;;;;;;9.02;2.90;;;28.40;36.10;;;;;;6180951;28;20021;-70
2022/06/18 01:48:17;;;;;;;9.02;2.95;;;28.30;36.20;;;;;;6198550;28;20019;-70
2022/06/18 01:51:29;;;;;;;8.52;3.00;;;28.30;36.50;;;;;;6190629;28;20018;-70
2022/06/18 01:54:37;;;;;;;3.67;2.58;;;28.20;37.10;;;;;;6186481;28;20111;-70
2022/06/18 01:57:43;;;;;;;7.70;2.53;;;28.20;37.20;;;;;;6173088;28;20033;-70
2022/06/18 02:00:51;;;;;;;8.57;2.80;;;28.10;37.70;;;;;;6190182;28;20027;-70
2022/06/18 02:03:54;;;;;;;5.05;2.70;;;28.10;38.30;;;;;;6187671;28;20030;-70
2022/06/18 02:06:55;;;;;;;4.90;3.00;;;28.10;38.60;;;;;;6186426;28;20053;-70
2022/06/18 02:09:59;;;;;;;4.70;2.60;;;28.10;38.80;;;;;;6184730;28;20448;-70
2022/06/18 02:13:03;;;;;;;3.88;2.80;;;28.00;39.10;;;;;;6197854;28;20033;-70
2022/06/18 02:16:10;;;;;;;3.03;2.13;;;28.00;39.20;;;;;;6201851;28;20188;-70
2022/06/18 02:19:11;;;;;;;5.35;2.50;;;28.00;39.40;;;;;;6204548;28;20020;-71
2022/06/18 02:22:13;;;;;;;4.63;3.10;;;27.90;39.50;;;;;;6186502;28;20320;-71
2022/06/18 02:25:16;;;;;;;11.23;2.67;;;27.90;39.50;;;;;;6178330;28;20037;-71
2022/06/18 02:28:27;;;;;;;5.38;2.60;;;27.80;39.40;;;;;;6175588;28;20093;-70
2022/06/18 02:31:33;;;;;;;5.18;2.92;;;27.80;39.60;;;;;;6187318;28;20026;-70
2022/06/18 02:34:34;;;;;;;9.52;3.03;;;27.80;39.70;;;;;;6176734;28;20034;-71
2022/06/18 02:37:38;;;;;;;7.25;2.65;;;27.70;39.70;;;;;;6186230;28;20028;-70
2022/06/18 02:40:39;;;;;;;5.10;2.60;;;27.70;39.80;;;;;;6184404;28;20045;-70
2022/06/18 02:43:42;;;;;;;8.02;3.63;;;27.60;39.70;;;;;;6198863;28;20036;-70
2022/06/18 02:46:43;;;;;;;6.53;2.85;;;27.60;39.70;;;;;;6203724;28;20495;-71
2022/06/18 02:50:00;;;;;;;4.40;2.92;;;27.60;39.70;;;;;;6181291;28;20018;-70
2022/06/18 02:53:02;;;;;;;3.67;2.38;;;27.50;39.80;;;;;;6185712;28;20026;-70
2022/06/18 02:56:06;;;;;;;5.50;2.78;;;27.50;39.80;;;;;;6176776;28;20379;-71
2022/06/18 02:59:07;;;;;;;7.68;3.08;;;27.50;39.50;;;;;;6201105;28;20049;-70
2022/06/18 03:02:08;;;;;;;8.35;4.72;;;27.40;39.00;;;;;;6178984;28;20022;-71
2022/06/18 03:05:27;;;;;;;26.92;10.15;;;27.50;38.70;;;;;;6179574;28;20410;-71
2022/06/18 03:08:30;;;;;;;19.30;11.40;;;27.40;38.40;;;;;;6199522;28;20068;-70
2022/06/18 03:14:52;;;;;;;22.20;11.90;;;27.40;38.20;;;;;;6175159;28;20054;-70
2022/06/18 03:17:54;;;;;;;16.33;8.45;;;27.40;38.20;;;;;;6164683;28;20107;-70
2022/06/18 03:20:57;;;;;;;11.80;7.45;;;27.40;38.20;;;;;;6175940;28;20101;-71
2022/06/18 03:23:59;;;;;;;13.88;6.50;;;27.30;38.20;;;;;;6188834;28;20439;-71
2022/06/18 03:27:00;;;;;;;10.07;5.38;;;27.30;38.30;;;;;;6179770;28;20050;-70
2022/06/18 03:30:03;;;;;;;8.73;4.47;;;27.20;38.40;;;;;;6161556;28;20128;-69
2022/06/18 03:33:04;;;;;;;6.75;3.80;;;27.20;38.50;;;;;;6202681;28;20027;-69
2022/06/18 03:36:06;;;;;;;10.13;4.50;;;27.10;38.50;;;;;;6167498;28;20027;-69
2022/06/18 03:39:09;;;;;;;9.55;3.78;;;27.10;38.50;;;;;;6176386;28;20105;-71
2022/06/18 03:42:10;;;;;;;4.70;3.30;;;27.00;38.40;;;;;;6176752;28;20030;-68
2022/06/18 03:45:12;;;;;;;6.97;3.00;;;27.00;38.50;;;;;;6163198;28;20054;-69
2022/06/18 03:48:22;;;;;;;6.70;3.03;;;27.00;38.70;;;;;;6162277;28;20014;-69
2022/06/18 03:51:24;;;;;;;6.85;3.22;;;27.00;39.30;;;;;;6158354;28;20030;-70
2022/06/18 03:54:25;;;;;;;6.60;3.15;;;27.00;39.60;;;;;;6139945;28;20031;-70
2022/06/18 03:57:27;;;;;;;5.60;2.42;;;27.00;39.80;;;;;;6157310;28;20368;-69
2022/06/18 04:00:29;;;;;;;9.13;3.10;;;27.00;40.00;;;;;;6175730;28;20035;-70
2022/06/18 04:03:32;;;;;;;5.95;3.03;;;27.00;40.00;;;;;;6163534;28;20027;-78
2022/06/18 04:06:34;;;;;;;4.13;3.03;;;27.00;40.00;;;;;;6136977;28;20098;-73
2022/06/18 04:09:43;;;;;;;7.80;2.83;;;27.00;40.00;;;;;;6159815;28;20034;-74
2022/06/18 04:12:46;;;;;;;7.22;3.03;;;27.00;39.80;;;;;;6163835;28;20026;-74
2022/06/18 04:16:10;;;;;;;5.35;2.88;;;27.00;39.60;;;;;;6184143;28;20464;-74
2022/06/18 04:19:13;;;;;;;4.00;2.30;;;27.00;39.40;;;;;;6195085;28;20097;-75
2022/06/18 04:22:14;;;;;;;5.70;2.45;;;27.00;39.50;;;;;;6195720;28;20019;-74
2022/06/18 04:25:30;;;;;;;15.45;3.28;;;27.00;39.60;;;;;;6196274;28;20096;-75
2022/06/18 04:28:32;;;;;;;5.30;2.80;;;26.90;39.80;;;;;;6174448;28;20026;-74
2022/06/18 04:31:38;;;;;;;5.03;2.58;;;26.90;40.00;;;;;;6181084;28;20516;-74
2022/06/18 04:34:39;;;;;;;6.80;2.90;;;26.90;39.90;;;;;;6180614;28;20030;-75
2022/06/18 04:38:04;;;;;;;6.00;2.80;;;27.00;39.80;;;;;;6198348;28;20046;-75
2022/06/18 04:41:19;;;;;;;7.32;2.72;;;27.00;39.60;;;;;;6169095;28;20062;-75
2022/06/18 04:44:26;;;;;;;7.93;2.45;;;27.10;39.50;;;;;;6196156;28;20041;-74
2022/06/18 04:47:41;;;;;;;4.88;2.17;;;27.10;39.30;;;;;;6169538;28;20381;-74
2022/06/18 04:50:42;;;;;;;5.70;2.65;;;27.20;39.20;;;;;;6170698;28;20122;-75
2022/06/18 04:53:44;;;;;;;8.10;2.90;;;27.20;39.10;;;;;;6183133;28;20019;-74
2022/06/18 04:56:45;;;;;;;4.43;2.78;;;27.20;39.30;;;;;;6177692;28;20137;-74
2022/06/18 04:59:47;;;;;;;3.45;2.53;;;27.10;39.40;;;;;;6197864;28;20496;-74
2022/06/18 05:02:48;;;;;;;6.63;2.78;;;27.10;39.50;;;;;;6178719;28;20101;-74
2022/06/18 05:06:04;;;;;;;5.95;2.65;;;27.10;39.50;;;;;;6185914;28;20385;-74
2022/06/18 05:09:31;;;;;;;8.88;2.88;;;27.10;40.20;;;;;;6190258;28;20037;-74
2022/06/18 05:13:07;;;;;;;6.88;3.05;;;27.10;39.70;;;;;;6122640;29;20032;-74
2022/06/18 05:16:19;;;;;;;11.65;2.83;;;27.10;40.00;;;;;;6114397;29;20062;-75
2022/06/18 05:19:26;;;;;;;9.05;3.15;;;27.10;40.00;;;;;;6108659;29;20032;-74
2022/06/18 05:22:30;;;;;;;7.05;3.00;;;27.00;40.00;;;;;;6093420;29;20035;-74
2022/06/18 05:25:37;;;;;;;5.78;2.80;;;27.10;40.00;;;;;;6107951;29;20046;-74
2022/06/18 05:28:38;;;;;;;4.45;2.75;;;27.00;40.10;;;;;;6113360;29;20039;-74
2022/06/18 05:31:38;;;;;;;8.95;3.30;;;27.10;40.30;;;;;;6111163;29;20102;-74
2022/06/18 05:34:41;;;;;;;12.45;3.17;;;27.10;40.40;;;;;;6112483;29;20390;-74
2022/06/18 05:37:42;;;;;;;12.30;3.38;;;27.10;40.30;;;;;;6111759;29;20141;-74
2022/06/18 05:40:42;;;;;;;3.35;2.67;;;27.20;40.40;;;;;;6096344;29;20039;-74
2022/06/18 05:43:43;;;;;;;13.10;3.03;;;27.20;40.30;;;;;;6112083;29;20469;-74
2022/06/18 05:46:44;;;;;;;6.82;3.13;;;27.30;40.30;;;;;;6137334;28;20057;-74
2022/06/18 05:49:45;;;;;;;4.38;2.97;;;27.30;40.30;;;;;;6170361;28;20055;-75
2022/06/18 05:52:48;;;;;;;11.25;2.95;;;27.30;40.30;;;;;;6165303;28;20110;-74
2022/06/18 05:56:10;;;;;;;5.70;2.88;;;27.30;40.30;;;;;;6063211;29;20570;-74
2022/06/18 05:59:30;;;;;;;4.00;2.85;;;27.40;40.30;;;;;;6081443;29;20064;-74
2022/06/18 06:02:31;;;;;;;13.88;3.35;;;27.40;40.20;;;;;;6065091;29;20024;-74
2022/06/18 06:05:32;;;;;;;7.15;2.85;;;27.40;40.10;;;;;;6080254;29;20036;-75
2022/06/18 06:08:33;;;;;;;4.07;2.80;;;27.50;40.10;;;;;;6061630;29;20037;-75
2022/06/18 06:11:34;;;;;;;8.43;3.20;;;27.50;40.00;;;;;;6063287;29;20036;-75
2022/06/18 06:14:40;;;;;;;6.35;3.10;;;27.60;40.00;;;;;;6063854;29;20075;-75
2022/06/18 06:17:44;;;;;;;7.32;3.50;;;27.70;40.00;;;;;;6102068;29;20031;-74
2022/06/18 06:20:48;;;;;;;8.13;3.03;;;27.70;40.00;;;;;;6087671;29;20351;-73
2022/06/18 06:23:50;;;;;;;8.05;3.20;;;27.80;39.90;;;;;;6101762;29;20436;-74
2022/06/18 06:26:50;;;;;;;7.55;3.70;;;27.80;39.80;;;;;;6083791;29;20123;-74
2022/06/18 06:29:51;;;;;;;6.65;3.45;;;27.90;39.80;;;;;;6059498;29;20076;-74
2022/06/18 06:32:54;;;;;;;8.60;3.20;;;27.90;39.50;;;;;;6127701;28;20444;-74
2022/06/18 06:35:55;;;;;;;6.63;3.60;;;28.10;39.30;;;;;;6187467;28;20045;-75
2022/06/18 06:38:56;;;;;;;6.28;3.00;;;28.20;39.10;;;;;;6168398;28;20753;-75
2022/06/18 06:41:57;;;;;;;6.95;2.90;;;28.30;38.90;;;;;;6162997;28;20053;-73
2022/06/18 06:44:58;;;;;;;4.05;3.25;;;28.30;38.60;;;;;;6180842;28;20106;-73
2022/06/18 06:48:00;;;;;;;8.63;3.08;;;28.50;38.40;;;;;;6147051;28;20467;-73
2022/06/18 06:51:00;;;;;;;8.40;2.53;;;28.50;38.00;;;;;;6179373;28;20050;-74
2022/06/18 06:54:01;;;;;;;5.10;3.10;;;28.60;37.80;;;;;;6164752;28;20030;-74
2022/06/18 06:57:21;;;;;;;7.35;2.75;;;28.70;37.50;;;;;;6148828;28;20186;-74
2022/06/18 07:00:22;;;;;;;8.13;3.20;;;28.70;37.10;;;;;;6157631;28;20029;-74
2022/06/18 07:03:32;;;;;;;6.18;3.20;;;28.80;37.10;;;;;;6157800;28;20023;-73
2022/06/18 07:06:35;;;;;;;5.25;2.92;;;28.90;36.80;;;;;;6152683;28;20023;-74
2022/06/18 07:09:36;;;;;;;9.05;2.80;;;29.00;36.50;;;;;;6179962;28;20670;-75
2022/06/18 07:12:38;;;;;;;3.70;2.75;;;29.20;36.10;;;;;;6168456;28;20030;-73
2022/06/18 07:15:40;;;;;;;5.90;2.90;;;29.30;35.90;;;;;;6172705;28;20472;-74
2022/06/18 07:18:41;;;;;;;5.57;2.67;;;29.40;35.80;;;;;;6178730;28;20121;-74
2022/06/18 07:21:42;;;;;;;6.63;2.63;;;29.50;35.50;;;;;;6173354;28;20402;-75
2022/06/18 07:24:43;;;;;;;6.80;2.85;;;29.70;35.50;;;;;;6196498;28;20030;-74
2022/06/18 07:27:44;;;;;;;3.78;2.40;;;29.90;35.20;;;;;;6193216;28;20014;-74
2022/06/18 07:30:48;;;;;;;5.20;2.30;;;29.90;35.10;;;;;;6183669;28;20608;-74
2022/06/18 07:33:49;;;;;;;5.07;3.08;;;30.00;35.10;;;;;;6197729;28;20037;-73
2022/06/18 07:36:50;;;;;;;6.60;2.60;;;30.20;35.00;;;;;;6193786;28;20019;-76
2022/06/18 07:39:50;;;;;;;6.35;3.05;;;30.30;34.90;;;;;;6190936;28;20122;-74
2022/06/18 07:42:53;;;;;;;3.88;2.67;;;30.40;34.80;;;;;;6192421;28;20030;-75
2022/06/18 07:45:54;;;;;;;6.05;2.63;;;30.40;34.70;;;;;;6183056;28;20045;-75
2022/06/18 07:48:55;;;;;;;8.68;2.80;;;30.50;34.60;;;;;;6186575;28;20080;-72
2022/06/18 07:51:56;;;;;;;10.43;3.05;;;30.60;34.30;;;;;;6197653;28;20758;-72
2022/06/18 07:54:58;;;;;;;5.07;2.63;;;30.70;34.00;;;;;;6185957;28;20034;-71
2022/06/18 07:57:59;;;;;;;9.90;3.45;;;30.70;33.90;;;;;;6197289;28;20022;-72
2022/06/18 08:00:59;;;;;;;5.38;2.75;;;30.70;33.80;;;;;;6179955;28;20490;-74
2022/06/18 08:04:00;;;;;;;6.47;3.15;;;30.80;33.60;;;;;;6198897;28;20489;-73
2022/06/18 08:07:01;;;;;;;5.65;2.80;;;30.90;33.50;;;;;;6164076;28;20113;-72
2022/06/18 08:10:05;;;;;;;18.77;3.20;;;31.00;33.40;;;;;;6184379;28;20093;-71
2022/06/18 08:13:06;;;;;;;6.80;3.38;;;31.10;33.30;;;;;;6181443;28;20436;-72
2022/06/18 08:16:09;;;;;;;5.20;2.83;;;31.20;33.40;;;;;;6188893;28;20066;-71
2022/06/18 08:19:12;;;;;;;5.47;2.85;;;31.30;33.40;;;;;;6203423;28;20337;-71
2022/06/18 08:22:13;;;;;;;9.05;3.50;;;31.40;33.10;;;;;;6196193;28;20439;-72
2022/06/18 08:25:16;;;;;;;7.47;2.63;;;31.60;33.10;;;;;;6188010;28;20018;-72
2022/06/18 08:28:17;;;;;;;7.50;3.10;;;31.70;32.70;;;;;;6199912;28;20433;-73
2022/06/18 08:31:18;;;;;;;3.80;2.90;;;31.80;32.20;;;;;;6188088;28;20045;-73
2022/06/18 08:34:19;;;;;;;6.38;3.80;;;31.90;31.90;;;;;;6199747;28;20030;-73
2022/06/18 08:37:20;;;;;;;6.57;2.92;;;32.00;31.90;;;;;;6196893;28;20117;-73
2022/06/18 08:40:48;;;;;;;7.18;2.83;;;32.10;32.10;;;;;;6179879;28;20032;-72
2022/06/18 08:44:36;;;;;;;6.77;2.90;;;32.10;32.50;;;;;;6171041;28;20383;-72
2022/06/18 08:47:48;;;;;;;6.38;2.88;;;32.20;32.60;;;;;;6082773;29;20034;-72
2022/06/18 08:51:18;;;;;;;5.53;3.03;;;32.30;32.60;;;;;;6097138;29;20058;-72
2022/06/18 08:54:47;;;;;;;14.55;3.72;;;32.40;32.50;;;;;;6102768;29;20156;-72
2022/06/18 08:57:51;;;;;;;;;;;32.50;32.40;;;;;;6097383;29;20864;-72
2022/06/18 09:01:06;;;;;;;7.05;3.47;;;32.50;32.40;;;;;;6100899;29;19962;-72
2022/06/18 09:04:22;;;;;;;12.30;5.93;;;32.60;32.40;;;;;;6099775;29;20038;-72
2022/06/18 09:07:43;;;;;;;7.15;3.70;;;32.50;32.20;;;;;;6100690;29;20077;-72
2022/06/18 09:10:56;;;;;;;5.72;3.83;;;32.50;31.80;;;;;;6093571;29;20091;-72
2022/06/18 09:14:20;;;;;;;4.00;2.90;;;32.60;31.80;;;;;;6099162;29;20909;-71
2022/06/18 09:17:36;;;;;;;6.55;3.60;;;32.70;31.80;;;;;;6099058;29;20024;-72
2022/06/18 09:20:58;;;;;;;8.68;4.65;;;32.80;31.60;;;;;;6128121;28;20093;-73
2022/06/18 09:24:05;;;;;;;8.63;4.38;;;33.00;31.70;;;;;;6170701;28;20066;-72
2022/06/18 09:27:17;;;;;;;8.93;4.75;;;33.20;31.60;;;;;;6190878;28;20433;-72
2022/06/18 09:30:29;;;;;;;8.50;4.05;;;33.20;31.40;;;;;;6193262;28;20108;-73
2022/06/18 09:33:42;;;;;;;14.80;4.28;;;33.30;31.30;;;;;;6173494;28;20035;-72
2022/06/18 09:36:48;;;;;;;10.27;3.72;;;33.30;31.10;;;;;;6188763;28;20026;-72
2022/06/18 09:39:55;;;;;;;8.77;4.10;;;33.40;31.00;;;;;;6157965;28;21031;-72
2022/06/18 09:43:25;;;;;;;6.13;3.13;;;33.50;30.90;;;;;;6157608;28;20030;-72
2022/06/18 09:47:07;;;;;;;4.50;2.90;;;33.60;30.80;;;;;;6171039;28;20026;-73
2022/06/18 09:50:52;;;;;;;10.18;3.65;;;33.70;30.80;;;;;;6169744;28;20053;-73
2022/06/18 09:53:58;;;;;;;7.03;3.13;;;33.80;30.60;;;;;;6105737;29;20048;-74
2022/06/18 09:57:00;;;;;;;6.97;3.53;;;33.90;30.40;;;;;;6120046;29;20051;-73
2022/06/18 10:00:18;;;;;;;11.18;3.42;;;34.00;30.20;;;;;;6124268;29;20488;-73
2022/06/18 10:06:57;;;;;;;10.38;3.30;;;34.00;29.90;;;;;;6112596;29;20107;-72
2022/06/18 10:10:05;;;;;;;9.38;3.95;;;34.10;30.00;;;;;;6099706;29;20134;-73
2022/06/18 10:13:18;;;;;;;7.53;3.70;;;34.10;29.90;;;;;;6091015;29;20040;-72
2022/06/18 10:17:06;;;;;;;7.40;3.28;;;34.20;29.90;;;;;;6112400;29;20063;-73
2022/06/18 10:20:25;;;;;;;9.00;3.88;;;34.30;29.90;;;;;;5999367;29;20045;-73
2022/06/18 10:23:39;;;;;;;4.55;3.25;;;34.30;29.90;;;;;;6024662;29;20077;-72
2022/06/18 10:27:04;;;;;;;5.93;3.00;;;34.40;29.80;;;;;;6015248;29;20056;-73
2022/06/18 10:30:05;;;;;;;8.73;3.60;;;34.50;29.80;;;;;;6056436;29;20064;-73
2022/06/18 10:33:09;;;;;;;21.58;11.75;;;34.60;29.70;;;;;;6062067;29;20112;-73
2022/06/18 10:36:19;;;;;;;5.95;3.70;;;34.60;29.70;;;;;;6063406;29;20040;-73
2022/06/18 10:39:46;;;;;;;9.38;3.20;;;34.70;29.60;;;;;;6064806;29;20025;-72
2022/06/18 10:43:12;;;;;;;11.48;4.50;;;34.80;29.50;;;;;;6061809;29;20049;-73
2022/06/18 10:46:20;;;;;;;14.20;3.42;;;34.90;29.40;;;;;;6063652;29;20029;-72
2022/06/18 10:49:25;;;;;;;7.72;4.43;;;35.10;29.10;;;;;;6052974;28;20381;-72
2022/06/18 10:52:26;;;;;;;7.75;3.65;;;35.10;28.70;;;;;;6174905;28;20030;-72
2022/06/18 10:55:28;;;;;;;14.55;4.25;;;35.20;28.50;;;;;;6154916;28;20146;-73
2022/06/18 10:58:29;;;;;;;6.28;3.47;;;35.30;28.40;;;;;;6158721;28;20039;-72
2022/06/18 11:01:45;;;;;;;8.68;3.17;;;35.40;28.30;;;;;;6174241;28;20019;-73
2022/06/18 11:05:00;;;;;;;11.43;2.95;;;35.50;28.10;;;;;;6165882;28;20018;-72
2022/06/18 11:08:04;;;;;;;8.10;3.08;;;35.80;27.80;;;;;;6165544;28;20113;-72
2022/06/18 11:11:14;;;;;;;7.50;3.75;;;36.80;27.00;;;;;;6170122;28;20448;-73
2022/06/18 11:14:18;;;;;;;7.88;3.35;;;37.90;26.00;;;;;;6186975;28;20054;-74
2022/06/18 11:17:26;;;;;;;5.85;2.80;;;38.70;25.10;;;;;;6206922;28;20055;-74
2022/06/18 11:20:30;;;;;;;7.57;3.22;;;39.30;24.40;;;;;;6204481;28;20093;-73
2022/06/18 11:23:36;;;;;;;8.48;3.38;;;40.00;23.80;;;;;;6208663;28;20042;-73
2022/06/18 11:26:52;;;;;;;21.83;3.08;;;40.40;23.40;;;;;;6201624;28;20086;-73
2022/06/18 11:29:55;;;;;;;7.90;3.20;;;40.80;23.30;;;;;;6207474;28;20092;-73
2022/06/18 11:32:56;;;;;;;7.97;3.00;;;41.50;23.00;;;;;;6193551;28;20463;-74
2022/06/18 11:36:05;;;;;;;6.32;2.65;;;42.00;22.70;;;;;;6192219;28;20354;-75
2022/06/18 11:39:22;;;;;;;9.88;3.35;;;42.50;22.40;;;;;;6186794;28;20018;-75
2022/06/18 11:42:26;;;;;;;11.57;6.00;;;43.00;22.00;;;;;;6199352;28;20014;-74
2022/06/18 11:45:46;;;;;;;11.05;3.53;;;43.40;21.70;;;;;;6198185;28;20052;-75
2022/06/18 11:49:03;;;;;;;12.93;2.85;;;43.70;21.40;;;;;;6201554;28;20021;-75
2022/06/18 11:52:23;;;;;;;4.20;2.83;;;43.90;21.30;;;;;;6209945;28;20076;-75
2022/06/18 11:55:36;;;;;;;5.15;2.80;;;44.10;21.30;;;;;;6204231;28;20135;-75
2022/06/18 11:59:19;;;;;;;3.67;2.58;;;44.30;21.30;;;;;;6179093;28;20042;-74
2022/06/18 12:02:29;;;;;;;7.75;2.83;;;44.30;21.10;;;;;;6206367;28;20069;-74
2022/06/18 12:05:46;;;;;;;9.02;3.00;;;44.30;21.10;;;;;;6207813;28;20034;-76
2022/06/18 12:08:47;;;;;;;6.10;3.10;;;44.40;20.90;;;;;;6208223;28;20113;-76
2022/06/18 12:12:21;;;;;;;9.77;2.92;;;44.60;20.50;;;;;;6175281;28;20040;-76
2022/06/18 12:15:50;;;;;;;9.43;3.13;;;44.80;20.40;;;;;;6186532;28;20054;-74
2022/06/18 12:19:06;;;;;;;6.47;3.00;;;45.00;20.00;;;;;;6085373;29;20043;-73
2022/06/18 12:22:18;;;;;;;9.85;3.38;;;45.10;20.00;;;;;;6104334;29;20100;-72
2022/06/18 12:25:38;;;;;;;5.93;3.10;;;45.20;19.90;;;;;;6091732;29;20034;-72
2022/06/18 12:29:00;;;;;;;4.57;2.63;;;45.30;19.60;;;;;;6101823;29;20049;-73
2022/06/18 12:32:31;;;;;;;7.85;3.22;;;45.50;19.30;;;;;;6104920;29;20028;-73
2022/06/18 12:35:56;;;;;;;6.25;3.30;;;45.40;19.10;;;;;;6104833;29;20032;-75
2022/06/18 12:39:35;;;;;;;4.47;2.70;;;45.30;19.10;;;;;;6105698;29;20118;-75
2022/06/18 12:42:51;;;;;;;7.10;2.97;;;45.00;19.10;;;;;;6022854;29;20048;-73
2022/06/18 12:46:03;;;;;;;10.55;3.30;;;44.80;19.30;;;;;;6019455;29;20038;-72
2022/06/18 12:49:07;;;;;;;6.82;3.33;;;44.90;19.40;;;;;;6015315;29;20044;-72
2022/06/18 12:52:26;;;;;;;4.68;2.78;;;44.70;19.40;;;;;;6016529;29;20045;-72
2022/06/18 12:55:33;;;;;;;12.10;2.97;;;44.50;19.60;;;;;;6050795;29;20047;-72
2022/06/18 12:58:57;;;;;;;5.13;2.88;;;44.60;19.50;;;;;;6092458;29;20036;-73
2022/06/18 13:02:12;;;;;;;5.22;2.80;;;45.00;19.30;;;;;;6000570;29;20543;-73
2022/06/18 13:05:40;;;;;;;5.90;2.65;;;45.40;18.90;;;;;;5981523;29;20125;-73
2022/06/18 13:08:56;;;;;;;9.07;3.13;;;45.60;18.70;;;;;;5916433;30;21212;-74
2022/06/18 13:12:18;;;;;;;10.55;3.15;;;46.00;18.40;;;;;;5927117;30;20119;-74
2022/06/18 13:15:37;;;;;;;6.68;3.10;;;46.20;18.20;;;;;;5938476;29;20058;-73
2022/06/18 13:18:41;;;;;;;6.95;2.88;;;46.60;18.10;;;;;;5984485;29;20133;-73
2022/06/18 13:21:43;;;;;;;6.85;2.80;;;47.00;17.80;;;;;;5984076;29;20101;-72
2022/06/18 13:28:31;;;;;;;6.13;2.65;;;48.10;17.20;;;;;;6017460;29;20036;-74
2022/06/18 13:31:41;;;;;;;6.93;3.22;;;48.30;16.90;;;;;;6012637;29;20463;-74
2022/06/18 13:34:48;;;;;;;10.80;3.08;;;48.70;16.70;;;;;;6009670;29;20079;-74
2022/06/18 13:38:18;;;;;;;12.35;3.83;;;49.00;16.60;;;;;;6027364;29;20047;-73
2022/06/18 13:41:33;;;;;;;4.55;2.95;;;49.60;16.30;;;;;;6081001;29;20032;-74
2022/06/18 13:45:18;;;;;;;7.50;2.95;;;49.70;16.00;;;;;;6114233;28;20460;-73
2022/06/18 13:48:41;;;;;;;7.93;2.90;;;49.50;16.20;;;;;;6212365;28;20376;-72
2022/06/18 13:51:43;;;;;;;7.10;3.15;;;49.30;16.20;;;;;;6198627;28;20026;-72
2022/06/18 13:54:51;;;;;;;9.57;3.50;;;49.30;16.20;;;;;;6195653;28;20373;-72
2022/06/18 13:57:52;;;;;;;7.30;3.30;;;49.40;16.20;;;;;;6184785;28;20502;-72
2022/06/18 14:01:09;;;;;;;6.45;3.03;;;49.70;16.10;;;;;;6196080;28;20450;-71
2022/06/18 14:04:19;;;;;;;5.80;3.30;;;50.20;15.90;;;;;;6215401;28;20034;-71
2022/06/18 14:07:29;;;;;;;9.32;3.00;;;50.60;15.60;;;;;;6191856;28;20037;-72
2022/06/18 14:10:30;;;;;;;11.23;3.35;;;50.90;15.40;;;;;;6209775;28;20451;-72
2022/06/18 14:13:44;;;;;;;8.52;3.30;;;51.40;15.30;;;;;;6189935;28;20018;-71
2022/06/18 14:16:59;;;;;;;9.15;3.53;;;51.60;15.20;;;;;;6210405;28;20467;-70
2022/06/18 14:20:02;;;;;;;6.45;3.75;;;51.60;15.10;;;;;;6170769;28;20388;-70
2022/06/18 14:23:08;;;;;;;5.78;3.10;;;51.60;15.70;;;;;;6188817;28;20022;-71
2022/06/18 14:26:09;;;;;;;10.20;3.50;;;51.50;15.30;;;;;;6176474;28;20034;-71
2022/06/18 14:29:10;;;;;;;7.97;3.42;;;51.70;15.20;;;;;;6210083;28;20026;-70
2022/06/18 14:32:31;;;;;;;7.18;3.80;;;51.90;15.10;;;;;;6189492;28;20022;-70
2022/06/18 14:35:41;;;;;;;11.68;3.60;;;52.40;15.00;;;;;;6186997;28;20034;-70
2022/06/18 14:38:43;;;;;;;10.18;3.65;;;52.50;14.80;;;;;;6183721;28;20169;-71
2022/06/18 14:41:48;;;;;;;11.32;3.67;;;52.70;14.80;;;;;;6204580;28;20037;-71
2022/06/18 14:44:52;;;;;;;7.18;3.50;;;52.60;14.70;;;;;;6194384;28;20159;-70
2022/06/18 14:48:26;;;;;;;5.80;3.33;;;52.50;14.80;;;;;;6211721;28;20101;-71
2022/06/18 14:51:57;;;;;;;6.55;3.60;;;52.00;15.00;;;;;;6189231;28;20021;-71
